Ana Sayfa
METAR-TAF:

METAR-TAF

Havaalanları :

Princeton, İngiliz Kolombiyası, Kanada

Enlem: 49-28N, Boylam: 120-31W, yükseklik: 700 m

Güncel hava durumu gözlemi

Rapor saat 01:00 UTC de 1 saat ve 42 dakika önce yapıldı.
Rüzgar değişken yönden 2 kt
Sıcaklık -4°C
Nem 100%
Basınç 1019 hPa
Görüş mesafesi: 16.1 km
1300 ft yükseklikte parçalı bulutlu
7500 ft yükseklikte parçalı çok bulutlu

METAR: CYDC 110100Z VRB02KT 10SM SCT013 BKN075 M04/M04 A3010 RMK ST3AC4 LAST STFD OBS/NEXT 11 1500UTC SLP229

Saat: 18:42 (02:42 UTC)


TAF: eksik

4.000'den fazla havaalanı için hava durumu gözlemleri ve tahminleri (METAR ve TAF raporları).

Kullanılabilir istasyonlar harita üzerinde sarı ve kırmızı noktalarla gösterilir.

İstasyonun adını görmek için fareyi noktanın üzerinde gezdirin.

Sonrasında hava gözlem ve tahminlerini görmek için tıklayın.

Haritayı değiştirmek için: yaklaştırmak için siyah artı işaretli yeşil düğmeye ve uzaklaştırmak için de eksi işaretli düğmeye hızla tıklayın; bitişik haritalar için yeşil okları kullanın.


METAR-TAF: